createdAt,value
2023-03-31T00:02:22.827Z,13.31
2023-03-31T00:04:54.902Z,13.25
2023-03-31T00:07:24.693Z,13.18
2023-03-31T00:10:00.886Z,13.12
2023-03-31T00:12:37.044Z,13.06
2023-03-31T00:15:03.635Z,13.02
2023-03-31T00:17:33.227Z,12.99
2023-03-31T00:20:05.590Z,12.95
2023-03-31T00:22:31.995Z,12.94
2023-03-31T00:24:58.390Z,12.92
2023-03-31T00:27:24.820Z,12.92
2023-03-31T00:29:53.011Z,12.90
2023-03-31T00:32:19.359Z,12.90
2023-03-31T00:34:46.494Z,12.88
2023-03-31T00:37:14.707Z,12.86
2023-03-31T00:39:41.390Z,12.83
2023-03-31T00:42:12.937Z,12.82
2023-03-31T00:45:08.032Z,12.79
2023-03-31T00:47:34.679Z,12.74
2023-03-31T00:50:01.068Z,12.70
2023-03-31T00:52:35.624Z,12.67
2023-03-31T00:55:07.567Z,12.63
2023-03-31T00:57:39.253Z,12.58
2023-03-31T01:00:16.127Z,12.55
2023-03-31T01:02:55.442Z,12.51
2023-03-31T01:05:25.971Z,12.48
2023-03-31T01:07:54.284Z,12.46
2023-03-31T01:10:21.748Z,12.43
2023-03-31T01:12:53.523Z,12.41
2023-03-31T01:15:20.348Z,12.38
2023-03-31T01:17:50.188Z,12.36
2023-03-31T01:20:58.757Z,12.34
2023-03-31T01:23:55.914Z,12.30
2023-03-31T01:26:38.574Z,12.28
2023-03-31T01:29:42.822Z,12.25
2023-03-31T01:32:53.902Z,12.23
2023-03-31T01:35:45.147Z,12.22
2023-03-31T01:38:57.204Z,12.22
2023-03-31T01:41:58.157Z,12.22
2023-03-31T01:44:41.035Z,12.21
2023-03-31T01:47:22.884Z,12.21
2023-03-31T01:50:06.542Z,12.22
2023-03-31T01:52:49.953Z,12.23
2023-03-31T01:55:24.517Z,12.23
2023-03-31T01:57:55.011Z,12.26
2023-03-31T02:00:29.633Z,12.28
2023-03-31T02:03:08.343Z,12.32
2023-03-31T02:05:41.101Z,12.35
2023-03-31T02:08:19.782Z,12.39
2023-03-31T02:10:48.143Z,12.42
2023-03-31T02:13:17.188Z,12.48
2023-03-31T02:15:48.741Z,12.52
2023-03-31T02:18:18.664Z,12.56
2023-03-31T02:20:49.144Z,12.61
2023-03-31T02:23:19.984Z,12.66
2023-03-31T02:25:53.491Z,12.70
2023-03-31T02:28:26.594Z,12.73
2023-03-31T02:31:14.273Z,12.77
2023-03-31T02:33:41.323Z,12.81
2023-03-31T02:36:08.730Z,12.84
2023-03-31T02:38:57.480Z,12.88
2023-03-31T02:41:24.013Z,12.90
2023-03-31T02:43:50.769Z,12.92
2023-03-31T02:46:17.294Z,12.94
2023-03-31T02:48:48.954Z,12.98
2023-03-31T02:51:38.626Z,13.00
2023-03-31T02:54:20.498Z,13.03
2023-03-31T02:57:05.895Z,13.04
2023-03-31T02:59:49.627Z,13.07
2023-03-31T03:02:31.020Z,13.08
2023-03-31T03:05:28.339Z,13.08
2023-03-31T03:08:13.452Z,13.07
2023-03-31T03:11:07.004Z,13.07
2023-03-31T03:13:42.555Z,13.07
2023-03-31T03:16:19.894Z,13.06
2023-03-31T03:19:00.656Z,13.06
2023-03-31T03:21:27.891Z,13.06
2023-03-31T03:23:54.853Z,13.05
2023-03-31T03:26:23.539Z,13.06
2023-03-31T03:28:51.387Z,13.07
2023-03-31T03:31:17.909Z,13.09
2023-03-31T03:33:44.441Z,13.09
2023-03-31T03:36:11.174Z,13.10
2023-03-31T03:38:37.739Z,13.12
2023-03-31T03:41:04.703Z,13.12
2023-03-31T03:43:31.125Z,13.12
2023-03-31T03:45:57.572Z,13.11
2023-03-31T03:48:23.979Z,13.11
2023-03-31T03:50:50.728Z,13.11
2023-03-31T03:53:17.171Z,13.10
2023-03-31T03:55:44.993Z,13.10
2023-03-31T03:58:11.570Z,13.10
2023-03-31T04:00:37.912Z,13.10
2023-03-31T04:03:04.365Z,13.10
2023-03-31T04:05:31.139Z,13.11
2023-03-31T04:07:57.625Z,13.12
2023-03-31T04:10:24.256Z,13.11
2023-03-31T04:12:51.073Z,13.13
2023-03-31T04:15:17.624Z,13.11
2023-03-31T04:17:48.634Z,13.11
2023-03-31T04:20:15.177Z,13.11
2023-03-31T04:22:41.701Z,13.12
2023-03-31T04:25:14.756Z,13.13
2023-03-31T04:27:50.748Z,13.12
2023-03-31T04:30:22.906Z,13.11
2023-03-31T04:32:54.954Z,13.10
2023-03-31T04:35:28.236Z,13.10
2023-03-31T04:37:59.211Z,13.08
2023-03-31T04:40:26.177Z,13.07
2023-03-31T04:42:52.561Z,13.06
2023-03-31T04:45:18.951Z,13.05
2023-03-31T04:47:45.395Z,13.04
2023-03-31T04:50:15.327Z,13.04
2023-03-31T04:52:43.208Z,13.03
2023-03-31T04:55:10.398Z,13.04
2023-03-31T04:57:37.185Z,13.03
2023-03-31T05:00:07.823Z,13.03
2023-03-31T05:02:35.030Z,13.04
2023-03-31T05:05:01.567Z,13.03
2023-03-31T05:07:28.042Z,13.02
2023-03-31T05:09:54.406Z,13.03
2023-03-31T05:12:20.923Z,13.03
2023-03-31T05:14:47.308Z,13.03
2023-03-31T05:17:13.691Z,13.03
2023-03-31T05:19:40.273Z,13.02
2023-03-31T05:22:06.720Z,13.03
2023-03-31T05:24:33.187Z,13.04
2023-03-31T05:26:59.604Z,13.03
2023-03-31T05:29:26.149Z,13.03
2023-03-31T05:31:53.913Z,13.04
2023-03-31T05:34:20.863Z,13.05
2023-03-31T05:36:53.469Z,13.04
2023-03-31T05:39:19.890Z,13.06
2023-03-31T05:41:46.291Z,13.05
2023-03-31T05:44:12.926Z,13.05
2023-03-31T05:46:39.318Z,13.06
2023-03-31T05:49:07.005Z,13.07
2023-03-31T05:51:33.804Z,13.06
2023-03-31T05:54:00.205Z,13.08
2023-03-31T05:56:27.478Z,13.09
2023-03-31T05:58:53.927Z,13.10
2023-03-31T06:01:22.730Z,13.11
2023-03-31T06:03:49.905Z,13.10
2023-03-31T06:06:19.441Z,13.11
2023-03-31T06:08:47.240Z,13.13
2023-03-31T06:11:19.489Z,13.16
2023-03-31T06:13:46.238Z,13.15
2023-03-31T06:16:14.995Z,13.18
2023-03-31T06:18:41.710Z,13.18
2023-03-31T06:21:11.119Z,13.20
2023-03-31T06:23:37.633Z,13.20
2023-03-31T06:26:08.043Z,13.22
2023-03-31T06:28:35.861Z,13.21
2023-03-31T06:31:07.791Z,13.23
2023-03-31T06:33:35.665Z,13.22
2023-03-31T06:36:05.464Z,13.22
2023-03-31T06:38:33.313Z,13.22
2023-03-31T06:40:59.722Z,13.22
2023-03-31T06:43:26.218Z,13.23
2023-03-31T06:45:54.067Z,13.27
2023-03-31T06:48:21.514Z,13.31
2023-03-31T06:50:48.056Z,13.36
2023-03-31T06:53:14.469Z,13.45
2023-03-31T06:55:41.017Z,13.50
2023-03-31T06:58:07.467Z,13.57
2023-03-31T07:00:34.314Z,13.64
2023-03-31T07:03:01.837Z,13.69
2023-03-31T07:05:37.625Z,13.75
2023-03-31T07:08:04.665Z,13.78
2023-03-31T07:10:34.217Z,13.81
2023-03-31T07:13:01.411Z,13.83
2023-03-31T07:15:28.692Z,13.84
2023-03-31T07:18:02.495Z,13.87
2023-03-31T07:20:30.637Z,13.88
2023-03-31T07:22:57.096Z,13.89
2023-03-31T07:25:23.640Z,13.91
2023-03-31T07:27:50.166Z,13.92
2023-03-31T07:30:19.078Z,13.96
2023-03-31T07:32:49.819Z,13.98
2023-03-31T07:35:17.231Z,14.00
2023-03-31T07:37:47.063Z,14.04
2023-03-31T07:40:16.676Z,14.09
2023-03-31T07:42:43.525Z,14.10
2023-03-31T07:45:10.779Z,14.13
2023-03-31T07:47:38.474Z,14.13
2023-03-31T07:50:06.297Z,14.13
2023-03-31T07:52:32.713Z,14.12
2023-03-31T07:54:59.142Z,14.11
2023-03-31T07:57:26.126Z,14.10
2023-03-31T07:59:52.605Z,14.08
2023-03-31T08:02:38.209Z,14.05
2023-03-31T08:05:06.621Z,14.05
2023-03-31T08:07:37.236Z,14.03
2023-03-31T08:10:05.768Z,14.02
2023-03-31T08:12:32.253Z,13.97
2023-03-31T08:14:59.017Z,13.96
2023-03-31T08:17:25.596Z,13.90
2023-03-31T08:19:52.086Z,13.86
2023-03-31T08:22:18.517Z,13.80
2023-03-31T08:24:44.934Z,13.75
2023-03-31T08:27:12.548Z,13.70
2023-03-31T08:29:39.241Z,13.67
2023-03-31T08:32:07.081Z,13.63
2023-03-31T08:34:33.759Z,13.62
2023-03-31T08:37:00.173Z,13.61
2023-03-31T08:39:27.240Z,13.63
2023-03-31T08:42:12.199Z,13.63
2023-03-31T08:44:48.476Z,13.65
2023-03-31T08:47:20.150Z,13.65
2023-03-31T08:49:53.646Z,13.68
2023-03-31T08:52:27.123Z,13.70
2023-03-31T08:54:59.107Z,13.72
2023-03-31T08:57:42.572Z,13.75
2023-03-31T09:00:25.314Z,13.80
2023-03-31T09:03:08.115Z,13.85
2023-03-31T09:05:58.978Z,13.88
2023-03-31T09:08:42.205Z,13.95
2023-03-31T09:11:20.109Z,13.96
2023-03-31T09:14:05.057Z,13.95
2023-03-31T09:16:57.815Z,13.96
2023-03-31T09:19:37.151Z,13.94
2023-03-31T09:22:08.485Z,13.92
2023-03-31T09:24:46.098Z,13.91
2023-03-31T09:27:12.850Z,13.87
2023-03-31T09:30:04.769Z,13.86
2023-03-31T09:32:32.912Z,13.81
2023-03-31T09:35:23.052Z,13.75
2023-03-31T09:37:50.511Z,13.67
2023-03-31T09:40:27.893Z,13.60
2023-03-31T09:42:59.331Z,13.54
2023-03-31T09:45:26.099Z,13.47
2023-03-31T09:47:56.957Z,13.42
2023-03-31T09:50:25.325Z,13.38
2023-03-31T09:53:00.773Z,13.38
2023-03-31T09:55:44.930Z,13.37
2023-03-31T09:58:15.469Z,13.38
2023-03-31T10:00:44.453Z,13.39
2023-03-31T10:03:13.853Z,13.42
2023-03-31T10:05:51.190Z,13.44
2023-03-31T10:08:17.562Z,13.46
2023-03-31T10:10:50.340Z,13.49
2023-03-31T10:13:21.182Z,13.52
2023-03-31T10:15:48.670Z,13.53
2023-03-31T10:18:18.751Z,13.55
2023-03-31T10:20:58.791Z,13.58
2023-03-31T10:23:30.045Z,13.60
2023-03-31T10:25:56.737Z,13.63
2023-03-31T10:28:23.479Z,13.65
2023-03-31T10:30:56.142Z,13.68
2023-03-31T10:33:25.661Z,13.71
2023-03-31T10:36:00.503Z,13.74
2023-03-31T10:38:31.746Z,13.78
2023-03-31T10:40:59.824Z,13.81
2023-03-31T10:43:50.065Z,13.87
2023-03-31T10:46:16.526Z,13.90
2023-03-31T10:48:44.512Z,13.94
2023-03-31T10:51:20.022Z,14.01
2023-03-31T10:53:51.555Z,14.07
2023-03-31T10:56:41.836Z,14.12
2023-03-31T10:59:42.201Z,14.18
2023-03-31T11:02:27.302Z,14.23
2023-03-31T11:05:13.382Z,14.30
2023-03-31T11:07:39.864Z,14.36
2023-03-31T11:10:21.267Z,14.43
2023-03-31T11:13:26.201Z,14.51
2023-03-31T11:16:16.537Z,14.57
2023-03-31T11:18:55.333Z,14.63
2023-03-31T11:22:01.621Z,14.72
2023-03-31T11:24:36.224Z,14.78
2023-03-31T11:27:27.519Z,14.83
2023-03-31T11:30:03.929Z,14.87
2023-03-31T11:33:02.759Z,14.91
2023-03-31T11:35:44.134Z,14.96
2023-03-31T11:38:21.707Z,14.98
2023-03-31T11:40:56.418Z,14.99
2023-03-31T11:43:49.689Z,15.00
2023-03-31T11:46:16.057Z,14.97
2023-03-31T11:48:51.069Z,14.97
2023-03-31T11:51:24.809Z,14.97
2023-03-31T11:53:54.476Z,14.95
2023-03-31T11:56:23.123Z,14.97
2023-03-31T11:58:56.052Z,15.02
2023-03-31T12:01:33.706Z,15.09
2023-03-31T12:04:11.519Z,15.18
2023-03-31T12:06:42.579Z,15.26
2023-03-31T12:09:21.080Z,15.33
2023-03-31T12:12:12.118Z,15.42
2023-03-31T12:15:03.270Z,15.49
2023-03-31T12:17:29.889Z,15.54
2023-03-31T12:20:02.134Z,15.61
2023-03-31T12:22:34.077Z,15.68
2023-03-31T12:25:00.527Z,15.74
2023-03-31T12:27:34.120Z,15.82
2023-03-31T12:30:04.774Z,15.90
2023-03-31T12:32:36.313Z,16.01
2023-03-31T12:35:08.375Z,16.14
2023-03-31T12:37:34.722Z,16.29
2023-03-31T12:40:16.704Z,16.45
2023-03-31T12:42:49.300Z,16.59
2023-03-31T12:45:28.202Z,16.73
2023-03-31T12:48:03.465Z,16.83
2023-03-31T12:50:40.736Z,16.87
2023-03-31T12:53:09.929Z,16.88
2023-03-31T12:55:47.952Z,16.86
2023-03-31T12:58:24.727Z,16.81
2023-03-31T13:01:10.571Z,16.73
2023-03-31T13:03:42.883Z,16.62
2023-03-31T13:06:33.403Z,16.51
2023-03-31T13:09:12.223Z,16.38
2023-03-31T13:11:53.166Z,16.30
2023-03-31T13:14:31.813Z,16.19
2023-03-31T13:17:13.434Z,16.12
2023-03-31T13:19:42.684Z,16.08
2023-03-31T13:22:28.696Z,16.07
2023-03-31T13:25:30.018Z,16.07
2023-03-31T13:27:58.390Z,16.08
2023-03-31T13:30:37.027Z,16.12
2023-03-31T13:33:37.160Z,16.15
2023-03-31T13:36:06.598Z,16.18
2023-03-31T13:38:59.629Z,16.26
2023-03-31T13:41:47.950Z,16.32
2023-03-31T13:44:27.117Z,16.39
2023-03-31T13:47:18.317Z,16.47
2023-03-31T13:50:22.332Z,16.55
2023-03-31T13:53:23.088Z,16.60
2023-03-31T13:56:13.152Z,16.65
2023-03-31T13:59:11.531Z,16.70
2023-03-31T14:01:59.830Z,16.74
2023-03-31T14:04:57.024Z,16.78
2023-03-31T14:07:43.946Z,16.81
2023-03-31T14:10:37.252Z,16.85
2023-03-31T14:13:14.950Z,16.92
2023-03-31T14:15:52.988Z,16.95
2023-03-31T14:18:34.146Z,16.99
2023-03-31T14:21:26.543Z,17.05
2023-03-31T14:24:11.203Z,17.11
2023-03-31T14:26:50.260Z,17.14
2023-03-31T14:29:47.902Z,17.21
2023-03-31T14:32:43.219Z,17.28
2023-03-31T14:35:38.891Z,17.35
2023-03-31T14:38:21.057Z,17.43
2023-03-31T14:40:56.116Z,17.49
2023-03-31T14:43:33.660Z,17.53
2023-03-31T14:46:08.302Z,17.60
2023-03-31T14:48:45.016Z,17.62
2023-03-31T14:51:14.548Z,17.61
2023-03-31T14:53:41.240Z,17.62
2023-03-31T14:56:12.347Z,17.64
2023-03-31T14:58:48.648Z,17.63
2023-03-31T15:01:18.913Z,17.63
2023-03-31T15:03:46.891Z,17.62
2023-03-31T15:06:14.552Z,17.61
2023-03-31T15:08:42.152Z,17.61
2023-03-31T15:11:15.019Z,17.61
2023-03-31T15:13:56.691Z,17.63
2023-03-31T15:16:35.996Z,17.65
2023-03-31T15:19:11.747Z,17.66
2023-03-31T15:21:39.106Z,17.68
2023-03-31T15:24:06.400Z,17.70
2023-03-31T15:26:41.561Z,17.72
2023-03-31T15:29:14.595Z,17.74
2023-03-31T15:31:41.692Z,17.76
2023-03-31T15:34:19.370Z,17.80
2023-03-31T15:36:45.853Z,17.80
2023-03-31T15:39:14.526Z,17.78
2023-03-31T15:41:42.818Z,17.76
2023-03-31T15:44:29.701Z,17.74
2023-03-31T15:47:29.642Z,17.70
2023-03-31T15:50:08.052Z,17.62
2023-03-31T15:52:38.318Z,17.54
2023-03-31T15:55:22.955Z,17.45
2023-03-31T15:57:50.818Z,17.33
2023-03-31T16:00:43.092Z,17.25
2023-03-31T16:03:14.762Z,17.18
2023-03-31T16:05:54.586Z,17.07
2023-03-31T16:08:31.260Z,16.97
2023-03-31T16:11:33.592Z,16.85
2023-03-31T16:14:06.094Z,16.75
2023-03-31T16:16:33.253Z,16.66
2023-03-31T16:19:09.904Z,16.62
2023-03-31T16:21:43.377Z,16.57
2023-03-31T16:24:10.285Z,16.53
2023-03-31T16:26:37.609Z,16.49
2023-03-31T16:29:05.193Z,16.45
2023-03-31T16:31:40.652Z,16.41
2023-03-31T16:34:09.613Z,16.37
2023-03-31T16:36:36.449Z,16.33
2023-03-31T16:39:11.636Z,16.29
2023-03-31T16:41:38.353Z,16.22
2023-03-31T16:44:06.271Z,16.17
2023-03-31T16:46:32.967Z,16.11
2023-03-31T16:48:59.385Z,16.04
2023-03-31T16:51:26.242Z,15.97
2023-03-31T16:53:52.608Z,15.92
2023-03-31T16:56:19.080Z,15.87
2023-03-31T16:58:45.563Z,15.83
2023-03-31T17:01:12.543Z,15.77
2023-03-31T17:03:41.628Z,15.71
2023-03-31T17:06:12.982Z,15.67
2023-03-31T17:08:39.982Z,15.62
2023-03-31T17:11:12.537Z,15.58
2023-03-31T17:13:40.633Z,15.54
2023-03-31T17:16:16.070Z,15.50
2023-03-31T17:18:48.559Z,15.49
2023-03-31T17:21:18.224Z,15.46
2023-03-31T17:23:46.450Z,15.43
2023-03-31T17:26:13.840Z,15.38
2023-03-31T17:28:41.002Z,15.33
2023-03-31T17:31:16.707Z,15.29
2023-03-31T17:33:43.646Z,15.22
2023-03-31T17:36:11.149Z,15.18
2023-03-31T17:38:38.990Z,15.13
2023-03-31T17:41:07.309Z,15.09
2023-03-31T17:43:35.259Z,15.04
2023-03-31T17:46:09.893Z,15.01
2023-03-31T17:48:38.567Z,14.95
2023-03-31T17:51:10.282Z,14.91
2023-03-31T17:53:36.713Z,14.85
2023-03-31T17:56:04.292Z,14.81
2023-03-31T17:58:31.307Z,14.77
2023-03-31T18:00:58.416Z,14.72
2023-03-31T18:03:27.444Z,14.70
2023-03-31T18:05:53.873Z,14.67
2023-03-31T18:08:20.300Z,14.64
2023-03-31T18:10:46.789Z,14.61
2023-03-31T18:13:13.405Z,14.59
2023-03-31T18:15:45.410Z,14.56
2023-03-31T18:18:11.839Z,14.54
2023-03-31T18:20:38.240Z,14.50
2023-03-31T18:23:04.619Z,14.46
2023-03-31T18:25:31.220Z,14.44
2023-03-31T18:27:57.619Z,14.40
2023-03-31T18:30:24.214Z,14.38
2023-03-31T18:32:50.862Z,14.34
2023-03-31T18:35:17.533Z,14.32
2023-03-31T18:38:03.250Z,14.30
2023-03-31T18:40:30.053Z,14.26
2023-03-31T18:42:56.700Z,14.22
2023-03-31T18:45:23.546Z,14.20
2023-03-31T18:47:50.672Z,14.18
2023-03-31T18:50:17.531Z,14.16
2023-03-31T18:52:43.879Z,14.14
2023-03-31T18:55:10.463Z,14.13
2023-03-31T18:57:36.852Z,14.12
2023-03-31T19:00:05.457Z,14.12
2023-03-31T19:02:32.167Z,14.12
2023-03-31T19:04:58.838Z,14.13
2023-03-31T19:07:25.195Z,14.12
2023-03-31T19:09:51.537Z,14.14
2023-03-31T19:12:17.965Z,14.14
2023-03-31T19:14:44.357Z,14.15
2023-03-31T19:17:11.700Z,14.17
2023-03-31T19:19:38.114Z,14.17
2023-03-31T19:22:05.009Z,14.16
2023-03-31T19:24:31.664Z,14.15
2023-03-31T19:26:58.404Z,14.13
2023-03-31T19:29:27.388Z,14.10
2023-03-31T19:31:53.845Z,14.08
2023-03-31T19:34:20.367Z,14.06
2023-03-31T19:36:46.781Z,14.04
2023-03-31T19:39:13.408Z,14.01
2023-03-31T19:41:39.855Z,14.00
2023-03-31T19:44:06.345Z,13.97
2023-03-31T19:46:32.992Z,13.96
2023-03-31T19:48:59.575Z,13.93
2023-03-31T19:51:27.680Z,13.94
2023-03-31T19:53:54.468Z,13.93
2023-03-31T19:56:25.028Z,13.93
2023-03-31T19:58:52.453Z,13.92
2023-03-31T20:01:24.671Z,13.93
2023-03-31T20:03:55.842Z,13.91
2023-03-31T20:06:26.629Z,13.91
2023-03-31T20:08:55.417Z,13.90
2023-03-31T20:11:22.106Z,13.88
2023-03-31T20:13:48.984Z,13.87
2023-03-31T20:16:19.020Z,13.86
2023-03-31T20:18:50.876Z,13.86
2023-03-31T20:21:19.583Z,13.84
2023-03-31T20:23:46.819Z,13.83
2023-03-31T20:26:16.526Z,13.82
2023-03-31T20:28:43.546Z,13.79
2023-03-31T20:31:13.192Z,13.77
2023-03-31T20:33:40.222Z,13.73
2023-03-31T20:36:09.503Z,13.72
2023-03-31T20:38:37.728Z,13.70
2023-03-31T20:41:04.127Z,13.68
2023-03-31T20:43:30.558Z,13.66
2023-03-31T20:46:03.889Z,13.63
2023-03-31T20:48:39.610Z,13.64
2023-03-31T20:51:08.664Z,13.60
2023-03-31T20:53:41.645Z,13.60
2023-03-31T20:56:12.140Z,13.59
2023-03-31T20:58:41.041Z,13.58
2023-03-31T21:01:09.486Z,13.58
2023-03-31T21:03:36.464Z,13.56
2023-03-31T21:06:05.447Z,13.57
2023-03-31T21:08:32.537Z,13.55
2023-03-31T21:10:59.363Z,13.54
2023-03-31T21:13:26.903Z,13.53
2023-03-31T21:15:56.690Z,13.52
2023-03-31T21:18:23.543Z,13.51
2023-03-31T21:20:57.395Z,13.52
2023-03-31T21:23:25.039Z,13.50
2023-03-31T21:25:54.454Z,13.50
2023-03-31T21:28:25.281Z,13.49
2023-03-31T21:30:56.043Z,13.48
2023-03-31T21:33:24.194Z,13.47
2023-03-31T21:35:51.905Z,13.46
2023-03-31T21:38:19.834Z,13.46
2023-03-31T21:40:48.002Z,13.44
2023-03-31T21:43:15.054Z,13.43
2023-03-31T21:45:41.797Z,13.42
2023-03-31T21:48:10.913Z,13.41
2023-03-31T21:50:39.982Z,13.41
2023-03-31T21:53:07.829Z,13.41
2023-03-31T21:55:37.257Z,13.40
2023-03-31T21:58:04.807Z,13.38
2023-03-31T22:00:31.943Z,13.38
2023-03-31T22:03:16.107Z,13.36
2023-03-31T22:05:45.151Z,13.36
2023-03-31T22:08:11.870Z,13.33
2023-03-31T22:10:38.257Z,13.30
2023-03-31T22:13:04.735Z,13.27
2023-03-31T22:15:31.478Z,13.25
2023-03-31T22:17:58.109Z,13.22
2023-03-31T22:20:24.616Z,13.17
2023-03-31T22:22:51.296Z,13.15
2023-03-31T22:25:17.703Z,13.13
2023-03-31T22:27:44.059Z,13.11
2023-03-31T22:30:10.914Z,13.08
2023-03-31T22:32:37.415Z,13.08
2023-03-31T22:35:04.030Z,13.05
2023-03-31T22:37:30.597Z,13.05
2023-03-31T22:39:57.009Z,13.04
2023-03-31T22:42:23.639Z,13.04
2023-03-31T22:44:50.384Z,13.04
2023-03-31T22:47:17.453Z,13.04
2023-03-31T22:49:43.881Z,13.04
2023-03-31T22:52:10.918Z,13.03
2023-03-31T22:54:40.059Z,13.04
2023-03-31T22:57:06.958Z,13.03
2023-03-31T22:59:34.065Z,13.02
2023-03-31T23:02:00.406Z,13.02
2023-03-31T23:04:27.379Z,13.02
2023-03-31T23:06:55.114Z,13.02
2023-03-31T23:09:23.566Z,13.02
2023-03-31T23:11:50.583Z,13.03
2023-03-31T23:14:17.322Z,13.02
2023-03-31T23:16:44.057Z,13.03
2023-03-31T23:19:11.940Z,13.02
2023-03-31T23:21:38.801Z,13.03
2023-03-31T23:24:05.735Z,13.02
2023-03-31T23:26:33.802Z,13.03
2023-03-31T23:29:00.558Z,13.04
2023-03-31T23:31:29.222Z,13.06
2023-03-31T23:33:57.812Z,13.06
2023-03-31T23:36:25.778Z,13.07
2023-03-31T23:38:54.258Z,13.08
2023-03-31T23:41:22.799Z,13.07
2023-03-31T23:43:50.913Z,13.07
2023-03-31T23:46:17.713Z,13.09
2023-03-31T23:48:44.726Z,13.07
2023-03-31T23:51:12.120Z,13.07
2023-03-31T23:53:38.543Z,13.06
2023-03-31T23:56:08.852Z,13.06
2023-03-31T23:58:35.740Z,13.04
